sensor_id;sensor_type;location;lat;lon;timestamp;pressure;altitude;pressure_sealevel;temperature;humidity
55517;BME280;41724;51.176;-0.708;2023-04-08T00:01:08;101900.49;;;8.00;52.94
55517;BME280;41724;51.176;-0.708;2023-04-08T00:03:36;101900.88;;;8.09;52.72
55517;BME280;41724;51.176;-0.708;2023-04-08T00:06:03;101898.97;;;8.02;52.46
55517;BME280;41724;51.176;-0.708;2023-04-08T00:08:30;101898.07;;;7.94;52.34
55517;BME280;41724;51.176;-0.708;2023-04-08T00:10:57;101896.66;;;7.83;52.28
55517;BME280;41724;51.176;-0.708;2023-04-08T00:13:24;101897.71;;;7.68;52.79
55517;BME280;41724;51.176;-0.708;2023-04-08T00:15:51;101902.28;;;7.34;53.81
55517;BME280;41724;51.176;-0.708;2023-04-08T00:18:17;101904.96;;;7.81;53.44
55517;BME280;41724;51.176;-0.708;2023-04-08T00:20:44;101902.28;;;7.28;53.71
55517;BME280;41724;51.176;-0.708;2023-04-08T00:23:12;101903.18;;;7.44;53.09
55517;BME280;41724;51.176;-0.708;2023-04-08T00:25:39;101906.54;;;7.05;53.53
55517;BME280;41724;51.176;-0.708;2023-04-08T00:28:06;101904.86;;;7.06;53.65
55517;BME280;41724;51.176;-0.708;2023-04-08T00:30:34;101904.52;;;7.25;53.72
55517;BME280;41724;51.176;-0.708;2023-04-08T00:33:01;101899.77;;;7.26;53.67
55517;BME280;41724;51.176;-0.708;2023-04-08T00:35:29;101900.22;;;7.19;53.58
55517;BME280;41724;51.176;-0.708;2023-04-08T00:37:56;101903.11;;;6.90;54.19
55517;BME280;41724;51.176;-0.708;2023-04-08T00:40:23;101909.12;;;7.09;53.77
55517;BME280;41724;51.176;-0.708;2023-04-08T00:42:50;101909.68;;;7.02;54.10
55517;BME280;41724;51.176;-0.708;2023-04-08T00:45:17;101912.02;;;6.56;54.64
55517;BME280;41724;51.176;-0.708;2023-04-08T00:47:44;101908.70;;;6.43;55.06
55517;BME280;41724;51.176;-0.708;2023-04-08T00:50:11;101907.18;;;6.50;54.91
55517;BME280;41724;51.176;-0.708;2023-04-08T00:52:38;101905.52;;;6.88;53.82
55517;BME280;41724;51.176;-0.708;2023-04-08T00:55:06;101911.24;;;6.54;54.25
55517;BME280;41724;51.176;-0.708;2023-04-08T00:57:33;101913.56;;;6.58;54.31
55517;BME280;41724;51.176;-0.708;2023-04-08T01:00:01;101915.34;;;6.41;54.70
55517;BME280;41724;51.176;-0.708;2023-04-08T01:02:34;101916.42;;;6.68;53.86
55517;BME280;41724;51.176;-0.708;2023-04-08T01:05:07;101916.53;;;6.83;53.30
55517;BME280;41724;51.176;-0.708;2023-04-08T01:07:37;101918.77;;;6.76;53.36
55517;BME280;41724;51.176;-0.708;2023-04-08T01:10:12;101919.78;;;6.74;53.69
55517;BME280;41724;51.176;-0.708;2023-04-08T01:12:48;101919.09;;;6.64;53.15
55517;BME280;41724;51.176;-0.708;2023-04-08T01:15:16;101925.59;;;5.83;54.36
55517;BME280;41724;51.176;-0.708;2023-04-08T01:17:45;101926.35;;;6.31;53.47
55517;BME280;41724;51.176;-0.708;2023-04-08T01:20:13;101919.99;;;5.95;54.70
55517;BME280;41724;51.176;-0.708;2023-04-08T01:22:54;101921.45;;;6.41;54.02
55517;BME280;41724;51.176;-0.708;2023-04-08T01:25:29;101919.25;;;6.34;53.73
55517;BME280;41724;51.176;-0.708;2023-04-08T01:27:58;101918.76;;;6.72;53.30
55517;BME280;41724;51.176;-0.708;2023-04-08T01:30:26;101916.71;;;6.60;52.90
55517;BME280;41724;51.176;-0.708;2023-04-08T01:32:54;101915.95;;;6.42;53.48
55517;BME280;41724;51.176;-0.708;2023-04-08T01:35:23;101916.33;;;5.87;54.89
55517;BME280;41724;51.176;-0.708;2023-04-08T01:37:51;101923.43;;;5.68;55.23
55517;BME280;41724;51.176;-0.708;2023-04-08T01:40:19;101926.17;;;5.95;55.10
55517;BME280;41724;51.176;-0.708;2023-04-08T01:42:47;101927.24;;;6.07;54.56
55517;BME280;41724;51.176;-0.708;2023-04-08T01:45:16;101925.56;;;5.92;54.66
55517;BME280;41724;51.176;-0.708;2023-04-08T01:47:44;101928.42;;;5.33;55.45
55517;BME280;41724;51.176;-0.708;2023-04-08T01:50:13;101924.75;;;5.90;54.75
55517;BME280;41724;51.176;-0.708;2023-04-08T01:52:43;101924.06;;;5.89;55.16
55517;BME280;41724;51.176;-0.708;2023-04-08T01:55:11;101932.32;;;5.50;55.27
55517;BME280;41724;51.176;-0.708;2023-04-08T01:57:40;101929.63;;;5.64;54.72
55517;BME280;41724;51.176;-0.708;2023-04-08T02:00:12;101931.14;;;5.66;55.16
55517;BME280;41724;51.176;-0.708;2023-04-08T02:02:41;101925.58;;;5.99;54.65
55517;BME280;41724;51.176;-0.708;2023-04-08T02:05:09;101930.24;;;5.64;53.95
55517;BME280;41724;51.176;-0.708;2023-04-08T02:07:36;101928.75;;;6.23;53.17
55517;BME280;41724;51.176;-0.708;2023-04-08T02:10:05;101934.31;;;6.13;53.51
55517;BME280;41724;51.176;-0.708;2023-04-08T02:12:32;101937.43;;;6.29;53.41
55517;BME280;41724;51.176;-0.708;2023-04-08T02:15:00;101937.89;;;5.81;53.32
55517;BME280;41724;51.176;-0.708;2023-04-08T02:17:32;101934.94;;;5.94;54.27
55517;BME280;41724;51.176;-0.708;2023-04-08T02:20:05;101936.49;;;5.43;53.83
55517;BME280;41724;51.176;-0.708;2023-04-08T02:22:40;101941.06;;;5.47;54.97
55517;BME280;41724;51.176;-0.708;2023-04-08T02:25:13;101940.02;;;5.41;55.12
55517;BME280;41724;51.176;-0.708;2023-04-08T02:27:41;101935.93;;;5.82;54.41
55517;BME280;41724;51.176;-0.708;2023-04-08T02:30:11;101935.93;;;5.73;53.77
55517;BME280;41724;51.176;-0.708;2023-04-08T02:32:40;101936.14;;;5.86;54.29
55517;BME280;41724;51.176;-0.708;2023-04-08T02:35:08;101935.41;;;5.98;53.52
55517;BME280;41724;51.176;-0.708;2023-04-08T02:37:37;101938.95;;;5.64;53.84
55517;BME280;41724;51.176;-0.708;2023-04-08T02:40:24;101939.53;;;5.80;53.66
55517;BME280;41724;51.176;-0.708;2023-04-08T02:42:52;101939.55;;;5.86;53.09
55517;BME280;41724;51.176;-0.708;2023-04-08T02:45:19;101940.11;;;5.75;53.57
55517;BME280;41724;51.176;-0.708;2023-04-08T02:47:47;101940.66;;;5.71;52.50
55517;BME280;41724;51.176;-0.708;2023-04-08T02:50:14;101944.98;;;5.99;52.51
55517;BME280;41724;51.176;-0.708;2023-04-08T02:52:40;101944.90;;;5.87;52.01
55517;BME280;41724;51.176;-0.708;2023-04-08T02:55:08;101949.62;;;5.93;51.50
55517;BME280;41724;51.176;-0.708;2023-04-08T02:57:35;101954.19;;;6.07;51.79
55517;BME280;41724;51.176;-0.708;2023-04-08T03:00:03;101958.51;;;5.86;52.16
55517;BME280;41724;51.176;-0.708;2023-04-08T03:02:31;101959.92;;;5.95;52.61
55517;BME280;41724;51.176;-0.708;2023-04-08T03:04:58;101960.74;;;5.64;52.68
55517;BME280;41724;51.176;-0.708;2023-04-08T03:07:25;101965.96;;;5.43;53.38
55517;BME280;41724;51.176;-0.708;2023-04-08T03:09:53;101966.77;;;5.70;53.07
55517;BME280;41724;51.176;-0.708;2023-04-08T03:12:20;101965.26;;;5.62;52.29
55517;BME280;41724;51.176;-0.708;2023-04-08T03:14:48;101966.08;;;5.67;52.23
55517;BME280;41724;51.176;-0.708;2023-04-08T03:17:15;101967.68;;;5.31;52.67
55517;BME280;41724;51.176;-0.708;2023-04-08T03:19:42;101968.57;;;5.46;52.13
55517;BME280;41724;51.176;-0.708;2023-04-08T03:22:09;101968.92;;;5.65;52.15
55517;BME280;41724;51.176;-0.708;2023-04-08T03:24:36;101971.24;;;5.56;52.71
55517;BME280;41724;51.176;-0.708;2023-04-08T03:27:03;101970.46;;;5.28;52.39
55517;BME280;41724;51.176;-0.708;2023-04-08T03:29:31;101975.59;;;5.57;52.51
55517;BME280;41724;51.176;-0.708;2023-04-08T03:31:58;101976.99;;;5.26;52.67
55517;BME280;41724;51.176;-0.708;2023-04-08T03:34:25;101986.01;;;5.23;52.88
55517;BME280;41724;51.176;-0.708;2023-04-08T03:36:52;101987.74;;;5.16;52.99
55517;BME280;41724;51.176;-0.708;2023-04-08T03:39:20;101984.34;;;5.36;52.24
55517;BME280;41724;51.176;-0.708;2023-04-08T03:41:47;101985.85;;;5.32;52.31
55517;BME280;41724;51.176;-0.708;2023-04-08T03:44:14;101984.20;;;5.10;51.94
55517;BME280;41724;51.176;-0.708;2023-04-08T03:46:42;101988.83;;;5.26;51.94
55517;BME280;41724;51.176;-0.708;2023-04-08T03:49:09;101989.26;;;5.59;51.92
55517;BME280;41724;51.176;-0.708;2023-04-08T03:51:36;101990.50;;;5.51;51.95
55517;BME280;41724;51.176;-0.708;2023-04-08T03:54:03;101993.35;;;5.58;52.26
55517;BME280;41724;51.176;-0.708;2023-04-08T03:56:31;101996.46;;;5.85;51.71
55517;BME280;41724;51.176;-0.708;2023-04-08T03:58:58;101997.80;;;5.85;52.55
55517;BME280;41724;51.176;-0.708;2023-04-08T04:01:25;102001.42;;;5.37;52.69
55517;BME280;41724;51.176;-0.708;2023-04-08T04:03:52;102003.41;;;5.47;53.19
55517;BME280;41724;51.176;-0.708;2023-04-08T04:06:20;102004.61;;;5.82;52.28
55517;BME280;41724;51.176;-0.708;2023-04-08T04:08:47;102006.80;;;5.92;52.85
55517;BME280;41724;51.176;-0.708;2023-04-08T04:11:14;102012.01;;;6.22;52.55
55517;BME280;41724;51.176;-0.708;2023-04-08T04:13:41;102012.52;;;6.27;52.96
55517;BME280;41724;51.176;-0.708;2023-04-08T04:16:08;102014.29;;;6.08;53.22
55517;BME280;41724;51.176;-0.708;2023-04-08T04:18:35;102011.67;;;6.30;53.58
55517;BME280;41724;51.176;-0.708;2023-04-08T04:21:04;102009.73;;;6.39;53.79
55517;BME280;41724;51.176;-0.708;2023-04-08T04:23:32;102011.05;;;6.18;54.27
55517;BME280;41724;51.176;-0.708;2023-04-08T04:25:59;102009.40;;;6.55;53.96
55517;BME280;41724;51.176;-0.708;2023-04-08T04:28:26;102008.59;;;6.36;53.96
55517;BME280;41724;51.176;-0.708;2023-04-08T04:30:53;102009.32;;;5.96;54.94
55517;BME280;41724;51.176;-0.708;2023-04-08T04:33:20;102010.46;;;6.26;55.97
55517;BME280;41724;51.176;-0.708;2023-04-08T04:35:47;102013.82;;;6.41;55.72
55517;BME280;41724;51.176;-0.708;2023-04-08T04:38:15;102018.16;;;6.59;56.14
55517;BME280;41724;51.176;-0.708;2023-04-08T04:40:42;102019.19;;;6.56;56.29
55517;BME280;41724;51.176;-0.708;2023-04-08T04:43:09;102022.20;;;6.16;56.64
55517;BME280;41724;51.176;-0.708;2023-04-08T04:45:37;102024.26;;;6.88;56.63
55517;BME280;41724;51.176;-0.708;2023-04-08T04:48:04;102027.30;;;6.53;56.98
55517;BME280;41724;51.176;-0.708;2023-04-08T04:50:31;102028.85;;;6.60;57.99
55517;BME280;41724;51.176;-0.708;2023-04-08T04:52:58;102032.41;;;6.38;58.88
55517;BME280;41724;51.176;-0.708;2023-04-08T04:55:25;102033.61;;;6.45;57.75
55517;BME280;41724;51.176;-0.708;2023-04-08T04:57:53;102039.56;;;6.77;57.45
55517;BME280;41724;51.176;-0.708;2023-04-08T05:00:20;102040.44;;;6.44;57.79
55517;BME280;41724;51.176;-0.708;2023-04-08T05:02:47;102043.88;;;6.62;57.98
55517;BME280;41724;51.176;-0.708;2023-04-08T05:05:15;102044.24;;;6.41;58.70
55517;BME280;41724;51.176;-0.708;2023-04-08T05:07:42;102043.49;;;6.72;58.14
55517;BME280;41724;51.176;-0.708;2023-04-08T05:10:09;102043.59;;;6.31;59.07
55517;BME280;41724;51.176;-0.708;2023-04-08T05:12:36;102041.41;;;6.54;58.13
55517;BME280;41724;51.176;-0.708;2023-04-08T05:15:04;102043.56;;;6.38;58.59
55517;BME280;41724;51.176;-0.708;2023-04-08T05:17:31;102047.79;;;6.09;58.97
55517;BME280;41724;51.176;-0.708;2023-04-08T05:19:58;102049.28;;;5.99;59.00
55517;BME280;41724;51.176;-0.708;2023-04-08T05:22:25;102052.65;;;6.11;58.02
55517;BME280;41724;51.176;-0.708;2023-04-08T05:24:52;102057.28;;;6.34;58.44
55517;BME280;41724;51.176;-0.708;2023-04-08T05:27:19;102055.68;;;6.11;57.94
55517;BME280;41724;51.176;-0.708;2023-04-08T05:29:47;102060.90;;;6.53;58.15
55517;BME280;41724;51.176;-0.708;2023-04-08T05:32:14;102059.06;;;6.06;57.79
55517;BME280;41724;51.176;-0.708;2023-04-08T05:34:41;102062.14;;;6.54;56.04
55517;BME280;41724;51.176;-0.708;2023-04-08T05:37:08;102063.81;;;6.06;56.99
55517;BME280;41724;51.176;-0.708;2023-04-08T05:39:36;102072.96;;;6.15;56.23
55517;BME280;41724;51.176;-0.708;2023-04-08T05:42:02;102066.70;;;6.28;56.78
55517;BME280;41724;51.176;-0.708;2023-04-08T05:44:30;102068.80;;;6.03;56.76
55517;BME280;41724;51.176;-0.708;2023-04-08T05:46:57;102068.55;;;6.01;56.93
55517;BME280;41724;51.176;-0.708;2023-04-08T05:49:24;102071.76;;;6.35;57.12
55517;BME280;41724;51.176;-0.708;2023-04-08T05:51:51;102069.03;;;5.71;57.69
55517;BME280;41724;51.176;-0.708;2023-04-08T05:54:19;102067.64;;;5.66;58.03
55517;BME280;41724;51.176;-0.708;2023-04-08T05:56:46;102064.31;;;5.59;58.34
55517;BME280;41724;51.176;-0.708;2023-04-08T05:59:12;102066.22;;;5.41;59.14
55517;BME280;41724;51.176;-0.708;2023-04-08T06:01:40;102068.48;;;5.67;57.53
55517;BME280;41724;51.176;-0.708;2023-04-08T06:04:07;102068.45;;;5.72;57.23
55517;BME280;41724;51.176;-0.708;2023-04-08T06:06:36;102071.46;;;5.47;57.83
55517;BME280;41724;51.176;-0.708;2023-04-08T06:09:03;102072.68;;;5.67;56.59
55517;BME280;41724;51.176;-0.708;2023-04-08T06:11:31;102076.22;;;5.24;57.93
55517;BME280;41724;51.176;-0.708;2023-04-08T06:13:58;102076.04;;;5.11;58.27
55517;BME280;41724;51.176;-0.708;2023-04-08T06:16:25;102077.19;;;5.20;57.85
55517;BME280;41724;51.176;-0.708;2023-04-08T06:18:52;102074.72;;;5.81;56.38
55517;BME280;41724;51.176;-0.708;2023-04-08T06:21:19;102077.84;;;5.67;56.70
55517;BME280;41724;51.176;-0.708;2023-04-08T06:23:46;102084.77;;;5.29;56.51
55517;BME280;41724;51.176;-0.708;2023-04-08T06:26:13;102089.09;;;5.76;57.59
55517;BME280;41724;51.176;-0.708;2023-04-08T06:28:40;102091.68;;;6.22;56.69
55517;BME280;41724;51.176;-0.708;2023-04-08T06:31:07;102091.42;;;5.69;57.08
55517;BME280;41724;51.176;-0.708;2023-04-08T06:33:34;102096.98;;;5.80;56.37
55517;BME280;41724;51.176;-0.708;2023-04-08T06:36:02;102099.18;;;6.38;56.02
55517;BME280;41724;51.176;-0.708;2023-04-08T06:38:29;102102.20;;;6.67;55.70
55517;BME280;41724;51.176;-0.708;2023-04-08T06:41:01;102098.07;;;6.96;55.17
55517;BME280;41724;51.176;-0.708;2023-04-08T06:43:28;102102.48;;;6.60;55.60
55517;BME280;41724;51.176;-0.708;2023-04-08T06:45:55;102104.12;;;6.65;55.73
55517;BME280;41724;51.176;-0.708;2023-04-08T06:48:22;102106.07;;;6.91;55.78
55517;BME280;41724;51.176;-0.708;2023-04-08T06:50:50;102114.79;;;7.06;55.18
55517;BME280;41724;51.176;-0.708;2023-04-08T06:53:17;102116.85;;;6.96;55.50
55517;BME280;41724;51.176;-0.708;2023-04-08T06:55:44;102120.12;;;6.74;56.99
55517;BME280;41724;51.176;-0.708;2023-04-08T06:58:11;102117.11;;;7.09;56.87
55517;BME280;41724;51.176;-0.708;2023-04-08T07:00:39;102116.26;;;7.10;57.59
55517;BME280;41724;51.176;-0.708;2023-04-08T07:03:06;102116.23;;;7.38;57.13
55517;BME280;41724;51.176;-0.708;2023-04-08T07:05:34;102115.92;;;7.32;56.88
55517;BME280;41724;51.176;-0.708;2023-04-08T07:08:02;102118.71;;;7.90;56.00
55517;BME280;41724;51.176;-0.708;2023-04-08T07:10:29;102124.54;;;6.95;57.09
55517;BME280;41724;51.176;-0.708;2023-04-08T07:12:57;102122.01;;;7.40;57.61
55517;BME280;41724;51.176;-0.708;2023-04-08T07:15:24;102119.07;;;7.81;57.06
55517;BME280;41724;51.176;-0.708;2023-04-08T07:17:51;102124.36;;;7.73;56.70
55517;BME280;41724;51.176;-0.708;2023-04-08T07:20:18;102123.16;;;7.31;57.67
55517;BME280;41724;51.176;-0.708;2023-04-08T07:22:45;102127.87;;;7.85;57.34
55517;BME280;41724;51.176;-0.708;2023-04-08T07:25:12;102130.00;;;7.79;56.51
55517;BME280;41724;51.176;-0.708;2023-04-08T07:27:39;102130.47;;;7.03;59.18
55517;BME280;41724;51.176;-0.708;2023-04-08T07:30:07;102135.13;;;7.50;58.01
55517;BME280;41724;51.176;-0.708;2023-04-08T07:32:34;102134.47;;;7.55;57.47
55517;BME280;41724;51.176;-0.708;2023-04-08T07:35:02;102140.16;;;7.12;58.29
55517;BME280;41724;51.176;-0.708;2023-04-08T07:37:29;102138.70;;;7.59;57.16
55517;BME280;41724;51.176;-0.708;2023-04-08T07:39:56;102140.02;;;8.04;56.96
55517;BME280;41724;51.176;-0.708;2023-04-08T07:42:23;102137.12;;;8.35;56.96
55517;BME280;41724;51.176;-0.708;2023-04-08T07:45:01;102137.70;;;8.05;58.06
55517;BME280;41724;51.176;-0.708;2023-04-08T07:47:28;102137.98;;;8.57;56.88
55517;BME280;41724;51.176;-0.708;2023-04-08T07:49:55;102142.89;;;8.37;57.22
55517;BME280;41724;51.176;-0.708;2023-04-08T07:52:23;102151.65;;;8.41;57.35
55517;BME280;41724;51.176;-0.708;2023-04-08T07:54:50;102155.04;;;8.19;57.86
55517;BME280;41724;51.176;-0.708;2023-04-08T07:57:17;102155.96;;;8.58;57.05
55517;BME280;41724;51.176;-0.708;2023-04-08T07:59:44;102162.04;;;8.30;58.58
55517;BME280;41724;51.176;-0.708;2023-04-08T08:02:12;102165.69;;;8.58;57.58
55517;BME280;41724;51.176;-0.708;2023-04-08T08:04:39;102167.90;;;8.59;57.53
55517;BME280;41724;51.176;-0.708;2023-04-08T08:07:06;102170.80;;;9.39;58.05
55517;BME280;41724;51.176;-0.708;2023-04-08T08:09:33;102172.29;;;9.00;57.30
55517;BME280;41724;51.176;-0.708;2023-04-08T08:12:00;102172.62;;;9.47;56.85
55517;BME280;41724;51.176;-0.708;2023-04-08T08:14:27;102171.70;;;9.83;57.14
55517;BME280;41724;51.176;-0.708;2023-04-08T08:16:55;102172.98;;;9.99;57.66
55517;BME280;41724;51.176;-0.708;2023-04-08T08:19:22;102171.64;;;10.16;57.25
55517;BME280;41724;51.176;-0.708;2023-04-08T08:21:51;102174.06;;;10.18;57.58
55517;BME280;41724;51.176;-0.708;2023-04-08T08:24:17;102177.98;;;9.47;58.69
55517;BME280;41724;51.176;-0.708;2023-04-08T08:26:45;102185.38;;;8.58;60.60
55517;BME280;41724;51.176;-0.708;2023-04-08T08:29:12;102185.33;;;9.17;60.46
55517;BME280;41724;51.176;-0.708;2023-04-08T08:31:40;102180.90;;;9.81;60.05
55517;BME280;41724;51.176;-0.708;2023-04-08T08:34:06;102184.18;;;10.01;59.53
55517;BME280;41724;51.176;-0.708;2023-04-08T08:36:34;102184.25;;;10.55;59.41
55517;BME280;41724;51.176;-0.708;2023-04-08T08:39:01;102186.47;;;10.53;59.23
55517;BME280;41724;51.176;-0.708;2023-04-08T08:41:32;102184.51;;;10.75;58.07
55517;BME280;41724;51.176;-0.708;2023-04-08T08:44:03;102182.32;;;11.30;57.35
55517;BME280;41724;51.176;-0.708;2023-04-08T16:35:21;101955.19;;;26.14;20.97
55517;BME280;41724;51.176;-0.708;2023-04-08T16:37:48;101956.22;;;25.07;22.69
55517;BME280;41724;51.176;-0.708;2023-04-08T16:40:15;101955.27;;;24.28;21.95
55517;BME280;41724;51.176;-0.708;2023-04-08T16:42:43;101955.34;;;24.64;21.78
55517;BME280;41724;51.176;-0.708;2023-04-08T16:45:10;101957.19;;;24.19;23.13
55517;BME280;41724;51.176;-0.708;2023-04-08T16:47:37;101956.91;;;24.43;23.26
55517;BME280;41724;51.176;-0.708;2023-04-08T16:50:05;101955.90;;;23.91;23.60
55517;BME280;41724;51.176;-0.708;2023-04-08T16:52:32;101957.24;;;23.38;23.73
55517;BME280;41724;51.176;-0.708;2023-04-08T16:55:00;101953.14;;;23.44;24.90
55517;BME280;41724;51.176;-0.708;2023-04-08T16:57:27;101955.25;;;23.47;24.92
55517;BME280;41724;51.176;-0.708;2023-04-08T16:59:54;101955.28;;;23.50;25.75
55517;BME280;41724;51.176;-0.708;2023-04-08T17:02:21;101952.98;;;24.02;25.02
55517;BME280;41724;51.176;-0.708;2023-04-08T17:04:50;101955.51;;;22.77;23.87
55517;BME280;41724;51.176;-0.708;2023-04-08T17:07:16;101952.77;;;22.81;24.47
55517;BME280;41724;51.176;-0.708;2023-04-08T17:09:43;101948.01;;;22.62;24.70
55517;BME280;41724;51.176;-0.708;2023-04-08T17:12:14;101950.52;;;21.18;25.21
55517;BME280;41724;51.176;-0.708;2023-04-08T17:14:41;101950.17;;;22.25;25.57
55517;BME280;41724;51.176;-0.708;2023-04-08T17:17:08;101956.43;;;23.63;24.80
55517;BME280;41724;51.176;-0.708;2023-04-08T17:19:35;101954.82;;;23.23;23.40
55517;BME280;41724;51.176;-0.708;2023-04-08T17:22:03;101953.56;;;23.34;24.31
55517;BME280;41724;51.176;-0.708;2023-04-08T17:24:30;101953.30;;;23.09;24.67
55517;BME280;41724;51.176;-0.708;2023-04-08T17:26:58;101946.12;;;24.25;24.58
55517;BME280;41724;51.176;-0.708;2023-04-08T17:29:25;101945.19;;;24.03;25.64
55517;BME280;41724;51.176;-0.708;2023-04-08T17:31:52;101946.47;;;23.66;26.89
55517;BME280;41724;51.176;-0.708;2023-04-08T17:34:18;101942.07;;;22.99;27.31
55517;BME280;41724;51.176;-0.708;2023-04-08T17:36:46;101941.62;;;22.14;28.22
55517;BME280;41724;51.176;-0.708;2023-04-08T17:39:13;101941.53;;;21.15;26.75
55517;BME280;41724;51.176;-0.708;2023-04-08T17:41:40;101945.32;;;21.29;26.56
55517;BME280;41724;51.176;-0.708;2023-04-08T17:44:07;101946.68;;;21.63;28.04
55517;BME280;41724;51.176;-0.708;2023-04-08T17:46:34;101950.57;;;20.90;29.17
55517;BME280;41724;51.176;-0.708;2023-04-08T17:49:01;101949.56;;;20.63;30.83
55517;BME280;41724;51.176;-0.708;2023-04-08T17:51:29;101950.85;;;20.42;31.96
55517;BME280;41724;51.176;-0.708;2023-04-08T17:53:55;101958.72;;;19.41;34.64
55517;BME280;41724;51.176;-0.708;2023-04-08T17:56:23;101960.57;;;19.17;35.25
55517;BME280;41724;51.176;-0.708;2023-04-08T17:58:49;101967.15;;;19.01;35.73
55517;BME280;41724;51.176;-0.708;2023-04-08T18:01:16;101968.65;;;18.84;36.82
55517;BME280;41724;51.176;-0.708;2023-04-08T18:03:43;101972.00;;;17.83;37.63
55517;BME280;41724;51.176;-0.708;2023-04-08T18:06:10;101972.80;;;17.45;38.50
55517;BME280;41724;51.176;-0.708;2023-04-08T21:35:05;102076.21;;;9.99;56.96
55517;BME280;41724;51.176;-0.708;2023-04-08T21:37:34;102076.43;;;10.55;55.31
55517;BME280;41724;51.176;-0.708;2023-04-08T21:40:01;102074.01;;;10.73;54.57
55517;BME280;41724;51.176;-0.708;2023-04-08T21:42:28;102076.80;;;10.63;53.42
55517;BME280;41724;51.176;-0.708;2023-04-08T21:44:55;102080.06;;;10.77;52.99
55517;BME280;41724;51.176;-0.708;2023-04-08T21:47:22;102077.20;;;10.76;53.14
55517;BME280;41724;51.176;-0.708;2023-04-08T21:49:50;102072.27;;;10.69;52.63
55517;BME280;41724;51.176;-0.708;2023-04-08T21:52:17;102074.73;;;10.64;52.41
55517;BME280;41724;51.176;-0.708;2023-04-08T21:54:48;102072.24;;;10.91;52.18
55517;BME280;41724;51.176;-0.708;2023-04-08T21:57:15;102074.15;;;10.54;52.11
55517;BME280;41724;51.176;-0.708;2023-04-08T21:59:42;102072.94;;;10.41;52.21
55517;BME280;41724;51.176;-0.708;2023-04-08T22:02:10;102070.65;;;11.02;51.50
55517;BME280;41724;51.176;-0.708;2023-04-08T22:04:37;102066.58;;;10.61;51.30
55517;BME280;41724;51.176;-0.708;2023-04-08T22:07:04;102064.65;;;10.68;50.97
55517;BME280;41724;51.176;-0.708;2023-04-08T22:09:31;102066.14;;;10.77;50.43
55517;BME280;41724;51.176;-0.708;2023-04-08T22:11:58;102066.29;;;10.62;50.68
55517;BME280;41724;51.176;-0.708;2023-04-08T22:14:26;102065.01;;;10.70;50.43
55517;BME280;41724;51.176;-0.708;2023-04-08T22:16:54;102064.23;;;10.80;49.97
55517;BME280;41724;51.176;-0.708;2023-04-08T22:19:21;102066.30;;;10.58;50.04
55517;BME280;41724;51.176;-0.708;2023-04-08T22:21:48;102069.16;;;10.46;50.48
55517;BME280;41724;51.176;-0.708;2023-04-08T22:24:15;102070.07;;;10.23;51.01
55517;BME280;41724;51.176;-0.708;2023-04-08T22:26:42;102072.90;;;10.39;50.36
55517;BME280;41724;51.176;-0.708;2023-04-08T22:29:09;102072.26;;;10.30;50.11
55517;BME280;41724;51.176;-0.708;2023-04-08T22:31:36;102073.37;;;10.42;50.36
55517;BME280;41724;51.176;-0.708;2023-04-08T22:34:03;102070.68;;;10.31;50.54
55517;BME280;41724;51.176;-0.708;2023-04-08T22:36:31;102070.40;;;10.34;50.10
55517;BME280;41724;51.176;-0.708;2023-04-08T22:38:58;102067.79;;;10.33;49.88
55517;BME280;41724;51.176;-0.708;2023-04-08T22:41:25;102065.31;;;10.36;49.90
55517;BME280;41724;51.176;-0.708;2023-04-08T22:43:52;102064.51;;;9.94;50.57
55517;BME280;41724;51.176;-0.708;2023-04-08T22:46:19;102061.83;;;10.00;50.25
55517;BME280;41724;51.176;-0.708;2023-04-08T22:48:47;102060.53;;;10.27;50.01
55517;BME280;41724;51.176;-0.708;2023-04-08T22:51:14;102058.20;;;10.21;50.13
55517;BME280;41724;51.176;-0.708;2023-04-08T22:53:41;102056.78;;;10.35;50.37
55517;BME280;41724;51.176;-0.708;2023-04-08T22:56:08;102057.86;;;10.10;50.10
55517;BME280;41724;51.176;-0.708;2023-04-08T22:58:35;102056.26;;;9.85;49.90
55517;BME280;41724;51.176;-0.708;2023-04-08T23:01:09;102058.04;;;9.96;50.32
55517;BME280;41724;51.176;-0.708;2023-04-08T23:03:36;102054.46;;;10.30;49.99
55517;BME280;41724;51.176;-0.708;2023-04-08T23:06:03;102055.69;;;9.80;50.91
55517;BME280;41724;51.176;-0.708;2023-04-08T23:08:30;102052.22;;;10.04;49.74
55517;BME280;41724;51.176;-0.708;2023-04-08T23:10:57;102048.20;;;9.45;51.37
55517;BME280;41724;51.176;-0.708;2023-04-08T23:13:26;102041.69;;;9.34;51.49
55517;BME280;41724;51.176;-0.708;2023-04-08T23:15:53;102044.79;;;9.15;51.94
55517;BME280;41724;51.176;-0.708;2023-04-08T23:18:20;102041.35;;;9.11;51.61
55517;BME280;41724;51.176;-0.708;2023-04-08T23:20:50;102042.42;;;9.20;51.45
55517;BME280;41724;51.176;-0.708;2023-04-08T23:23:17;102039.90;;;9.20;51.28
55517;BME280;41724;51.176;-0.708;2023-04-08T23:25:44;102040.50;;;9.60;50.81
55517;BME280;41724;51.176;-0.708;2023-04-08T23:28:11;102038.60;;;9.53;50.80
55517;BME280;41724;51.176;-0.708;2023-04-08T23:30:38;102033.79;;;9.35;51.20
55517;BME280;41724;51.176;-0.708;2023-04-08T23:33:05;102032.04;;;9.32;50.61
55517;BME280;41724;51.176;-0.708;2023-04-08T23:35:33;102033.18;;;9.25;50.75
55517;BME280;41724;51.176;-0.708;2023-04-08T23:38:00;102031.45;;;9.03;51.10
55517;BME280;41724;51.176;-0.708;2023-04-08T23:40:27;102030.24;;;9.02;51.32
55517;BME280;41724;51.176;-0.708;2023-04-08T23:42:54;102028.87;;;9.28;50.79
55517;BME280;41724;51.176;-0.708;2023-04-08T23:45:22;102026.70;;;9.03;50.85
55517;BME280;41724;51.176;-0.708;2023-04-08T23:47:49;102023.45;;;9.13;51.42
55517;BME280;41724;51.176;-0.708;2023-04-08T23:50:16;102025.47;;;8.94;50.60
55517;BME280;41724;51.176;-0.708;2023-04-08T23:52:43;102024.54;;;9.03;51.08
55517;BME280;41724;51.176;-0.708;2023-04-08T23:55:10;102023.08;;;8.82;51.76
55517;BME280;41724;51.176;-0.708;2023-04-08T23:57:40;102023.41;;;9.01;51.34
